createdAt,value
2023-03-31T00:01:21.489Z,3.13
2023-03-31T00:04:08.346Z,2.50
2023-03-31T00:06:54.786Z,3.30
2023-03-31T00:09:41.901Z,2.70
2023-03-31T00:12:28.366Z,2.70
2023-03-31T00:15:13.752Z,3.08
2023-03-31T00:18:00.452Z,2.85
2023-03-31T00:20:45.760Z,3.10
2023-03-31T00:23:31.489Z,2.70
2023-03-31T00:26:17.096Z,2.92
2023-03-31T00:29:03.225Z,3.33
2023-03-31T00:31:48.627Z,2.35
2023-03-31T00:34:34.955Z,2.65
2023-03-31T00:37:21.459Z,3.05
2023-03-31T00:40:09.530Z,3.15
2023-03-31T00:42:55.162Z,4.90
2023-03-31T00:45:40.447Z,2.15
2023-03-31T00:48:27.598Z,2.67
2023-03-31T00:51:14.429Z,3.35
2023-03-31T00:54:05.440Z,2.53
2023-03-31T00:56:53.201Z,2.67
2023-03-31T00:59:46.652Z,2.65
2023-03-31T01:02:32.077Z,2.30
2023-03-31T01:05:24.507Z,2.45
2023-03-31T01:08:11.001Z,2.40
2023-03-31T01:11:07.185Z,2.55
2023-03-31T01:13:56.013Z,2.28
2023-03-31T01:16:41.702Z,2.03
2023-03-31T01:19:40.156Z,2.28
2023-03-31T01:23:01.662Z,2.30
2023-03-31T01:26:18.344Z,2.20
2023-03-31T01:29:37.210Z,1.83
2023-03-31T01:32:35.523Z,2.58
2023-03-31T01:35:51.452Z,1.67
2023-03-31T01:38:42.618Z,1.70
2023-03-31T01:41:50.653Z,2.22
2023-03-31T01:44:46.339Z,2.40
2023-03-31T01:47:44.479Z,1.65
2023-03-31T01:50:41.512Z,1.95
2023-03-31T01:53:40.369Z,1.73
2023-03-31T01:57:09.658Z,2.17
2023-03-31T02:00:14.378Z,1.60
2023-03-31T02:03:17.115Z,2.08
2023-03-31T02:06:12.480Z,2.45
2023-03-31T02:09:03.687Z,1.80
2023-03-31T02:11:51.716Z,1.98
2023-03-31T02:14:42.031Z,1.98
2023-03-31T02:17:32.585Z,1.60
2023-03-31T02:20:21.533Z,1.55
2023-03-31T02:23:06.628Z,1.80
2023-03-31T02:25:57.307Z,2.08
2023-03-31T02:28:43.118Z,1.67
2023-03-31T02:31:56.278Z,1.90
2023-03-31T02:34:42.197Z,1.90
2023-03-31T02:37:29.579Z,2.35
2023-03-31T02:43:04.952Z,1.73
2023-03-31T02:45:51.461Z,2.17
2023-03-31T02:48:45.632Z,1.60
2023-03-31T02:51:40.765Z,1.95
2023-03-31T02:54:58.236Z,1.90
2023-03-31T02:58:05.590Z,1.88
2023-03-31T03:01:16.872Z,1.70
2023-03-31T03:04:41.657Z,2.45
2023-03-31T03:08:05.780Z,1.98
2023-03-31T03:10:56.977Z,1.65
2023-03-31T03:13:53.452Z,1.67
2023-03-31T03:16:46.267Z,1.95
2023-03-31T03:19:31.466Z,1.67
2023-03-31T03:22:16.549Z,1.73
2023-03-31T03:25:02.085Z,1.90
2023-03-31T03:27:47.728Z,1.80
2023-03-31T03:30:33.082Z,1.60
2023-03-31T03:33:18.546Z,1.23
2023-03-31T03:36:04.190Z,1.60
2023-03-31T03:38:49.631Z,1.70
2023-03-31T03:41:35.416Z,1.60
2023-03-31T03:44:20.801Z,1.73
2023-03-31T03:47:06.605Z,2.10
2023-03-31T03:49:51.715Z,1.85
2023-03-31T03:52:37.263Z,1.95
2023-03-31T03:55:23.090Z,1.27
2023-03-31T03:58:09.750Z,1.90
2023-03-31T04:00:54.820Z,2.05
2023-03-31T04:03:40.230Z,1.55
2023-03-31T04:06:25.979Z,2.30
2023-03-31T04:09:12.022Z,1.95
2023-03-31T04:11:57.432Z,1.80
2023-03-31T04:14:42.653Z,1.92
2023-03-31T04:17:34.642Z,1.83
2023-03-31T04:20:21.044Z,1.90
2023-03-31T04:23:09.552Z,2.20
2023-03-31T04:25:54.846Z,2.13
2023-03-31T04:28:42.800Z,2.05
2023-03-31T04:31:30.799Z,1.67
2023-03-31T04:34:16.012Z,2.20
2023-03-31T04:37:02.752Z,2.70
2023-03-31T04:39:50.564Z,2.00
2023-03-31T04:42:36.472Z,2.10
2023-03-31T04:45:21.840Z,1.77
2023-03-31T04:48:07.819Z,2.00
2023-03-31T04:50:53.196Z,1.85
2023-03-31T04:53:38.539Z,1.85
2023-03-31T04:56:24.008Z,2.10
2023-03-31T04:59:09.577Z,1.70
2023-03-31T05:01:54.699Z,2.15
2023-03-31T05:04:40.250Z,1.90
2023-03-31T05:07:25.373Z,2.28
2023-03-31T05:10:10.880Z,2.28
2023-03-31T05:12:56.647Z,3.00
2023-03-31T05:15:44.959Z,2.03
2023-03-31T05:18:30.154Z,2.60
2023-03-31T05:21:18.857Z,1.85
2023-03-31T05:24:04.763Z,1.85
2023-03-31T05:26:52.752Z,2.58
2023-03-31T05:29:38.250Z,2.05
2023-03-31T05:32:23.353Z,2.72
2023-03-31T05:35:09.307Z,2.33
2023-03-31T05:37:54.712Z,2.80
2023-03-31T05:40:40.060Z,1.77
2023-03-31T05:43:25.491Z,2.38
2023-03-31T05:46:10.993Z,2.80
2023-03-31T05:48:56.563Z,2.17
2023-03-31T05:51:41.956Z,2.92
2023-03-31T05:54:27.927Z,2.28
2023-03-31T05:57:13.880Z,2.20
2023-03-31T05:59:59.158Z,2.13
2023-03-31T06:02:44.604Z,3.63
2023-03-31T06:05:32.296Z,3.63
2023-03-31T06:08:17.396Z,2.20
2023-03-31T06:11:07.560Z,2.35
2023-03-31T06:13:53.374Z,2.10
2023-03-31T06:16:39.064Z,2.60
2023-03-31T06:19:24.826Z,2.10
2023-03-31T06:22:09.941Z,2.70
2023-03-31T06:24:55.686Z,2.45
2023-03-31T06:27:40.783Z,2.83
2023-03-31T06:30:26.262Z,3.38
2023-03-31T06:33:11.651Z,3.35
2023-03-31T06:35:57.743Z,2.55
2023-03-31T06:38:44.185Z,2.67
2023-03-31T06:41:29.583Z,2.60
2023-03-31T06:44:16.577Z,3.30
2023-03-31T06:47:01.816Z,3.22
2023-03-31T06:49:47.249Z,3.33
2023-03-31T06:52:32.664Z,3.67
2023-03-31T06:55:17.885Z,2.72
2023-03-31T06:58:03.846Z,2.60
2023-03-31T07:00:49.689Z,2.97
2023-03-31T07:03:34.983Z,2.90
2023-03-31T07:06:20.063Z,2.75
2023-03-31T07:09:05.675Z,2.58
2023-03-31T07:11:51.051Z,2.40
2023-03-31T07:14:36.880Z,2.72
2023-03-31T07:17:25.423Z,2.40
2023-03-31T07:20:13.131Z,3.35
2023-03-31T07:22:58.656Z,2.53
2023-03-31T07:25:44.032Z,3.00
2023-03-31T07:28:30.739Z,2.50
2023-03-31T07:31:16.347Z,2.72
2023-03-31T07:34:02.801Z,3.17
2023-03-31T07:36:48.112Z,2.42
2023-03-31T07:39:33.205Z,3.08
2023-03-31T07:42:18.553Z,2.95
2023-03-31T07:45:06.218Z,3.13
2023-03-31T07:47:52.187Z,2.50
2023-03-31T07:50:37.444Z,3.00
2023-03-31T07:53:28.210Z,2.58
2023-03-31T07:56:13.705Z,3.30
2023-03-31T07:58:59.227Z,3.03
2023-03-31T08:01:44.932Z,2.67
2023-03-31T08:04:30.406Z,2.45
2023-03-31T08:07:17.321Z,2.50
2023-03-31T08:10:06.180Z,3.58
2023-03-31T08:12:51.460Z,2.10
2023-03-31T08:15:36.787Z,2.42
2023-03-31T08:18:22.467Z,1.98
2023-03-31T08:21:09.722Z,2.22
2023-03-31T08:23:55.876Z,2.45
2023-03-31T08:26:41.641Z,2.95
2023-03-31T08:29:27.076Z,2.53
2023-03-31T08:32:12.726Z,2.58
2023-03-31T08:34:58.061Z,1.98
2023-03-31T08:37:43.536Z,2.60
2023-03-31T08:40:30.820Z,2.88
2023-03-31T08:43:29.219Z,2.13
2023-03-31T08:46:18.726Z,2.17
2023-03-31T08:49:06.029Z,2.10
2023-03-31T08:52:04.750Z,2.70
2023-03-31T08:54:58.341Z,2.00
2023-03-31T08:57:58.864Z,2.42
2023-03-31T09:00:52.714Z,2.58
2023-03-31T09:04:12.949Z,2.13
2023-03-31T09:07:06.110Z,2.40
2023-03-31T09:10:17.570Z,2.17
2023-03-31T09:13:11.890Z,2.13
2023-03-31T09:16:21.036Z,2.05
2023-03-31T09:22:27.908Z,2.00
2023-03-31T09:25:23.763Z,2.95
2023-03-31T09:28:19.331Z,1.75
2023-03-31T09:31:18.142Z,2.20
2023-03-31T09:34:14.419Z,2.75
2023-03-31T09:36:59.541Z,2.47
2023-03-31T09:39:49.166Z,1.95
2023-03-31T09:42:36.409Z,2.28
2023-03-31T09:45:22.265Z,2.70
2023-03-31T09:48:14.816Z,1.92
2023-03-31T09:51:03.929Z,2.28
2023-03-31T09:53:52.199Z,2.10
2023-03-31T09:56:43.596Z,8.40
2023-03-31T09:59:34.701Z,1.55
2023-03-31T10:02:36.504Z,2.75
2023-03-31T10:05:29.597Z,2.20
2023-03-31T10:08:23.625Z,2.05
2023-03-31T10:11:12.036Z,2.80
2023-03-31T10:14:15.021Z,3.47
2023-03-31T10:17:05.928Z,2.55
2023-03-31T10:19:58.003Z,1.65
2023-03-31T10:22:44.777Z,1.88
2023-03-31T10:25:30.793Z,2.17
2023-03-31T10:28:19.281Z,2.10
2023-03-31T10:31:05.267Z,2.40
2023-03-31T10:33:52.489Z,2.33
2023-03-31T10:36:39.064Z,1.92
2023-03-31T10:39:30.806Z,2.22
2023-03-31T10:42:24.732Z,2.40
2023-03-31T10:45:10.815Z,2.00
2023-03-31T10:51:26.781Z,2.08
2023-03-31T10:54:12.393Z,2.33
2023-03-31T10:57:01.451Z,1.90
2023-03-31T11:00:05.206Z,3.10
2023-03-31T11:03:12.545Z,2.35
2023-03-31T11:06:05.107Z,2.50
2023-03-31T11:09:21.801Z,2.70
2023-03-31T11:12:23.290Z,2.45
2023-03-31T11:19:20.895Z,3.70
2023-03-31T11:22:15.480Z,2.90
2023-03-31T11:25:27.100Z,2.25
2023-03-31T11:28:34.581Z,4.28
2023-03-31T11:31:40.498Z,1.95
2023-03-31T11:34:47.486Z,2.13
2023-03-31T11:37:53.063Z,2.00
2023-03-31T11:41:06.967Z,1.80
2023-03-31T11:44:03.653Z,2.15
2023-03-31T11:47:00.020Z,2.50
2023-03-31T11:50:12.698Z,1.80
2023-03-31T11:53:02.395Z,2.40
2023-03-31T11:55:52.910Z,2.70
2023-03-31T11:58:44.979Z,2.58
2023-03-31T12:01:44.820Z,2.10
2023-03-31T12:04:38.870Z,3.40
2023-03-31T12:07:37.167Z,3.50
2023-03-31T12:10:32.057Z,2.22
2023-03-31T12:13:37.729Z,3.30
2023-03-31T12:16:33.521Z,3.22
2023-03-31T12:19:32.469Z,2.33
2023-03-31T12:22:44.897Z,3.17
2023-03-31T12:25:52.129Z,3.35
2023-03-31T12:28:40.610Z,2.88
2023-03-31T12:31:30.589Z,2.45
2023-03-31T12:34:19.657Z,2.83
2023-03-31T12:37:29.887Z,1.98
2023-03-31T12:40:31.638Z,2.28
2023-03-31T12:43:51.126Z,2.10
2023-03-31T12:46:58.998Z,2.25
2023-03-31T12:50:01.133Z,1.80
2023-03-31T12:53:10.550Z,2.55
2023-03-31T12:58:46.566Z,2.60
2023-03-31T13:01:31.929Z,1.90
2023-03-31T13:04:21.950Z,2.35
2023-03-31T13:10:19.019Z,2.35
2023-03-31T13:13:14.843Z,2.50
2023-03-31T13:16:02.465Z,2.65
2023-03-31T13:18:53.500Z,2.90
2023-03-31T13:21:59.139Z,4.03
2023-03-31T13:24:44.758Z,3.50
2023-03-31T13:31:11.127Z,3.70
2023-03-31T13:34:02.310Z,6.65
2023-03-31T13:37:09.901Z,4.35
2023-03-31T13:40:19.569Z,5.28
2023-03-31T13:43:44.288Z,3.55
2023-03-31T13:46:32.071Z,3.72
2023-03-31T13:49:47.748Z,3.83
2023-03-31T13:53:15.833Z,3.45
2023-03-31T13:56:18.194Z,3.10
2023-03-31T13:59:31.731Z,2.92
2023-03-31T14:03:00.838Z,3.05
2023-03-31T14:06:02.240Z,1.63
2023-03-31T14:08:51.392Z,2.50
2023-03-31T14:11:36.943Z,1.40
2023-03-31T14:14:25.189Z,1.23
2023-03-31T14:17:12.044Z,1.20
2023-03-31T14:20:34.392Z,1.50
2023-03-31T14:23:46.559Z,1.90
2023-03-31T14:26:49.900Z,1.70
2023-03-31T14:29:51.829Z,1.25
2023-03-31T14:33:21.910Z,1.02
2023-03-31T14:36:25.781Z,1.52
2023-03-31T14:39:12.421Z,1.90
2023-03-31T14:42:06.320Z,1.58
2023-03-31T14:44:57.174Z,1.63
2023-03-31T14:47:44.252Z,4.32
2023-03-31T14:50:34.215Z,2.40
2023-03-31T14:53:24.508Z,1.55
2023-03-31T14:56:16.216Z,1.70
2023-03-31T14:59:03.556Z,2.17
2023-03-31T15:01:51.050Z,1.73
2023-03-31T15:04:46.636Z,1.25
2023-03-31T15:07:32.804Z,1.95
2023-03-31T15:10:21.238Z,1.42
2023-03-31T15:13:15.581Z,1.70
2023-03-31T15:16:43.670Z,1.88
2023-03-31T15:19:33.870Z,1.73
2023-03-31T15:22:19.941Z,1.83
2023-03-31T15:25:05.884Z,1.92
2023-03-31T15:27:56.648Z,1.40
2023-03-31T15:30:43.796Z,1.50
2023-03-31T15:33:34.096Z,1.10
2023-03-31T15:36:21.141Z,2.55
2023-03-31T15:39:06.385Z,1.70
2023-03-31T15:41:53.208Z,1.70
2023-03-31T15:44:47.768Z,1.75
2023-03-31T15:47:38.567Z,1.80
2023-03-31T15:50:24.733Z,2.00
2023-03-31T15:53:25.144Z,2.00
2023-03-31T15:56:25.043Z,1.60
2023-03-31T15:59:25.256Z,2.78
2023-03-31T16:02:17.589Z,2.50
2023-03-31T16:05:08.129Z,2.47
2023-03-31T16:07:57.523Z,1.80
2023-03-31T16:10:43.688Z,1.98
2023-03-31T16:13:31.334Z,1.77
2023-03-31T16:16:21.857Z,2.45
2023-03-31T16:19:12.391Z,2.70
2023-03-31T16:22:01.975Z,2.80
2023-03-31T16:24:47.642Z,2.00
2023-03-31T16:27:39.612Z,1.45
2023-03-31T16:30:40.332Z,1.45
2023-03-31T16:33:25.941Z,1.25
2023-03-31T16:36:13.335Z,2.10
2023-03-31T16:39:01.876Z,3.10
2023-03-31T16:41:47.585Z,1.40
2023-03-31T16:44:32.852Z,1.33
2023-03-31T16:47:31.583Z,1.58
2023-03-31T16:50:20.416Z,1.60
2023-03-31T16:53:05.341Z,2.25
2023-03-31T16:55:51.111Z,1.73
2023-03-31T16:58:37.808Z,1.30
2023-03-31T17:01:22.832Z,1.20
2023-03-31T17:04:08.722Z,1.33
2023-03-31T17:06:54.053Z,1.45
2023-03-31T17:09:39.645Z,1.45
2023-03-31T17:12:25.030Z,2.47
2023-03-31T17:15:11.322Z,2.42
2023-03-31T17:17:58.771Z,2.78
2023-03-31T17:20:44.079Z,2.75
2023-03-31T17:23:30.187Z,2.45
2023-03-31T17:26:16.015Z,2.85
2023-03-31T17:29:01.577Z,3.05
2023-03-31T17:31:47.124Z,2.80
2023-03-31T17:34:32.133Z,2.95
2023-03-31T17:37:18.807Z,3.33
2023-03-31T17:40:05.280Z,4.72
2023-03-31T17:42:50.539Z,3.53
2023-03-31T17:45:35.759Z,2.75
2023-03-31T17:48:21.091Z,2.63
2023-03-31T17:51:13.789Z,3.45
2023-03-31T17:53:59.081Z,2.55
2023-03-31T17:56:45.413Z,4.35
2023-03-31T17:59:31.089Z,4.20
2023-03-31T18:02:16.211Z,3.30
2023-03-31T18:05:01.607Z,5.15
2023-03-31T18:07:47.243Z,5.88
2023-03-31T18:10:34.053Z,4.40
2023-03-31T18:13:19.461Z,4.70
2023-03-31T18:16:08.451Z,6.13
2023-03-31T18:18:53.914Z,4.97
2023-03-31T18:21:39.267Z,5.25
2023-03-31T18:24:25.014Z,3.72
2023-03-31T18:27:10.077Z,3.20
2023-03-31T18:29:55.366Z,3.78
2023-03-31T18:32:40.957Z,3.95
2023-03-31T18:35:27.251Z,4.20
2023-03-31T18:38:13.249Z,4.50
2023-03-31T18:40:58.855Z,5.50
2023-03-31T18:43:44.477Z,5.25
2023-03-31T18:46:30.006Z,4.32
2023-03-31T18:49:15.329Z,4.30
2023-03-31T18:52:02.438Z,4.10
2023-03-31T18:54:47.921Z,5.50
2023-03-31T18:57:33.506Z,5.40
2023-03-31T19:00:20.414Z,6.90
2023-03-31T19:03:05.599Z,6.65
2023-03-31T19:05:51.021Z,7.65
2023-03-31T19:08:37.683Z,5.38
2023-03-31T19:11:23.742Z,5.60
2023-03-31T19:14:09.719Z,7.22
2023-03-31T19:16:55.024Z,6.63
2023-03-31T19:19:40.417Z,6.60
2023-03-31T19:22:27.564Z,5.95
2023-03-31T19:25:14.198Z,6.30
2023-03-31T19:27:59.578Z,5.40
2023-03-31T19:30:47.975Z,8.40
2023-03-31T19:33:33.400Z,7.75
2023-03-31T19:36:18.936Z,7.78
2023-03-31T19:39:06.486Z,6.85
2023-03-31T19:41:51.633Z,6.75
2023-03-31T19:44:37.141Z,7.28
2023-03-31T19:47:22.297Z,4.80
2023-03-31T19:50:08.378Z,5.38
2023-03-31T19:52:53.784Z,7.13
2023-03-31T19:55:41.321Z,6.68
2023-03-31T19:58:28.266Z,6.20
2023-03-31T20:01:17.498Z,5.78
2023-03-31T20:04:03.055Z,4.88
2023-03-31T20:06:49.557Z,5.30
2023-03-31T20:09:34.892Z,4.43
2023-03-31T20:12:20.097Z,5.80
2023-03-31T20:15:06.132Z,5.70
2023-03-31T20:17:52.133Z,5.53
2023-03-31T20:20:38.059Z,5.40
2023-03-31T20:23:23.404Z,6.38
2023-03-31T20:26:14.388Z,8.60
2023-03-31T20:29:04.346Z,8.73
2023-03-31T20:31:50.393Z,8.57
2023-03-31T20:34:35.889Z,5.93
2023-03-31T20:37:21.084Z,5.32
2023-03-31T20:40:06.652Z,6.25
2023-03-31T20:42:54.013Z,6.07
2023-03-31T20:45:39.168Z,6.15
2023-03-31T20:48:25.435Z,5.57
2023-03-31T20:51:17.652Z,6.35
2023-03-31T20:54:03.953Z,7.38
2023-03-31T20:56:50.946Z,7.85
2023-03-31T20:59:36.254Z,5.00
2023-03-31T21:02:21.759Z,5.30
2023-03-31T21:05:07.069Z,6.20
2023-03-31T21:07:52.438Z,6.22
2023-03-31T21:10:46.478Z,5.47
2023-03-31T21:13:31.979Z,5.38
2023-03-31T21:16:17.775Z,5.43
2023-03-31T21:19:03.729Z,5.78
2023-03-31T21:21:48.765Z,5.25
2023-03-31T21:24:35.057Z,5.63
2023-03-31T21:27:20.602Z,5.15
2023-03-31T21:30:06.574Z,5.22
2023-03-31T21:32:52.773Z,3.88
2023-03-31T21:35:38.133Z,4.25
2023-03-31T21:38:23.464Z,3.92
2023-03-31T21:41:09.895Z,3.67
2023-03-31T21:43:55.910Z,5.40
2023-03-31T21:46:41.432Z,4.85
2023-03-31T21:49:26.667Z,3.40
2023-03-31T21:52:11.843Z,3.50
2023-03-31T21:54:57.614Z,3.95
2023-03-31T21:57:42.760Z,3.83
2023-03-31T22:00:28.174Z,4.20
2023-03-31T22:06:04.021Z,5.90
2023-03-31T22:08:49.753Z,5.05
2023-03-31T22:11:34.869Z,3.50
2023-03-31T22:14:20.239Z,2.45
2023-03-31T22:17:05.471Z,2.90
2023-03-31T22:19:51.323Z,2.72
2023-03-31T22:22:40.326Z,3.38
2023-03-31T22:25:25.857Z,3.85
2023-03-31T22:28:12.511Z,4.43
2023-03-31T22:30:58.035Z,3.67
2023-03-31T22:33:43.962Z,3.45
2023-03-31T22:36:29.492Z,3.70
